createdAt,value
2022-12-07T06:19:44.957Z,98.18
2022-12-07T06:20:20.204Z,98.51
2022-12-07T06:20:51.775Z,98.56
2022-12-07T06:21:23.449Z,98.67
2022-12-07T06:21:55.906Z,98.37
2022-12-07T06:22:27.561Z,98.48
2022-12-07T06:22:59.191Z,98.68
2022-12-07T06:23:30.789Z,99.03
2022-12-07T06:24:02.862Z,98.70
2022-12-07T06:24:34.947Z,98.89
2022-12-07T06:25:08.852Z,99.06
2022-12-07T06:25:40.653Z,99.38
2022-12-07T06:26:12.225Z,99.50
2022-12-07T06:26:44.067Z,99.58
2022-12-07T06:27:15.700Z,99.69
2022-12-07T06:27:47.311Z,99.75
2022-12-07T06:28:18.919Z,99.87
2022-12-07T06:28:50.730Z,99.88
2022-12-07T06:29:23.078Z,99.68
2022-12-07T06:29:54.667Z,99.61
2022-12-07T06:30:26.231Z,99.70
2022-12-07T06:30:59.963Z,99.96
2022-12-07T06:31:31.753Z,99.99
2022-12-07T06:32:04.378Z,99.99
2022-12-07T06:32:37.762Z,99.99
2022-12-07T06:33:09.493Z,99.99
2022-12-07T06:33:41.757Z,99.95
2022-12-07T06:34:16.115Z,99.82
2022-12-07T06:34:48.547Z,99.78
2022-12-07T06:35:20.160Z,99.79
2022-12-07T06:35:52.288Z,99.99
2022-12-07T06:36:27.187Z,99.99
2022-12-07T06:36:59.090Z,99.99
2022-12-07T06:37:30.696Z,99.99
2022-12-07T06:38:02.812Z,99.96
2022-12-07T06:38:34.438Z,99.84
2022-12-07T06:39:06.864Z,99.99
2022-12-07T06:39:39.420Z,99.99
2022-12-07T06:40:11.483Z,99.99
2022-12-07T06:40:43.055Z,99.99
2022-12-07T06:41:14.639Z,99.99
2022-12-07T06:41:46.519Z,99.99
2022-12-07T06:42:18.079Z,99.99
2022-12-07T06:42:49.639Z,99.99
2022-12-07T06:43:21.277Z,99.83
2022-12-07T06:43:56.280Z,99.70
2022-12-07T06:44:28.116Z,99.17
2022-12-07T06:44:59.699Z,99.27
2022-12-07T06:45:31.417Z,99.15
2022-12-07T06:46:03.095Z,99.09
2022-12-07T06:46:36.481Z,99.17
2022-12-07T06:48:00.616Z,99.50
2022-12-07T06:48:32.582Z,99.61
2022-12-07T06:49:05.758Z,99.74
2022-12-07T06:49:37.399Z,99.46
2022-12-07T06:50:09.400Z,99.70
2022-12-07T06:50:41.070Z,99.61
2022-12-07T06:51:12.734Z,99.49
2022-12-07T06:51:44.967Z,99.38
2022-12-07T06:52:16.563Z,99.58
2022-12-07T06:52:48.156Z,99.58
2022-12-07T06:53:19.717Z,99.40
2022-12-07T06:53:51.350Z,99.10
2022-12-07T06:54:23.016Z,99.13
2022-12-07T06:54:54.614Z,99.13
2022-12-07T06:55:26.267Z,98.98
2022-12-07T06:55:57.870Z,99.22
2022-12-07T06:56:29.930Z,99.31
2022-12-07T06:57:01.598Z,99.36
2022-12-07T06:57:33.191Z,99.06
2022-12-07T06:58:04.818Z,99.00
2022-12-07T06:58:36.446Z,99.20
2022-12-07T06:59:08.785Z,99.42
2022-12-07T06:59:40.547Z,99.35
2022-12-07T07:00:19.866Z,99.32
2022-12-07T07:00:53.360Z,99.19
2022-12-07T07:01:25.098Z,98.58
2022-12-07T07:01:56.929Z,98.63
2022-12-07T07:02:28.577Z,98.45
2022-12-07T07:03:00.172Z,98.29
2022-12-07T07:03:31.762Z,98.35
2022-12-07T07:04:03.484Z,98.33
2022-12-07T07:04:35.114Z,98.42
2022-12-07T07:05:07.019Z,98.48
2022-12-07T07:05:41.668Z,98.88
2022-12-07T07:06:14.330Z,98.51
2022-12-07T07:06:45.906Z,98.50
2022-12-07T07:07:17.490Z,98.46
2022-12-07T07:08:20.818Z,98.46
2022-12-07T07:08:43.473Z,98.52
2022-12-07T07:09:15.130Z,98.77
2022-12-07T07:09:46.768Z,98.71
2022-12-07T07:10:18.518Z,98.55
2022-12-07T07:10:50.977Z,98.73
2022-12-07T07:11:22.651Z,98.62
2022-12-07T07:11:54.254Z,98.69
2022-12-07T07:12:25.857Z,98.70
2022-12-07T07:12:57.946Z,98.97
2022-12-07T07:13:30.004Z,99.16
2022-12-07T07:14:03.384Z,98.84
2022-12-07T07:14:35.043Z,98.84
2022-12-07T07:15:07.356Z,99.05
2022-12-07T07:15:39.454Z,99.30
2022-12-07T07:16:11.614Z,99.30
2022-12-07T07:16:43.237Z,99.21
2022-12-07T07:17:14.883Z,99.28
2022-12-07T07:17:46.498Z,99.44
2022-12-07T07:18:18.187Z,99.07
2022-12-07T07:18:49.772Z,99.10
2022-12-07T07:19:21.480Z,98.96
2022-12-07T07:19:53.104Z,98.71
2022-12-07T07:20:25.100Z,98.85
2022-12-07T07:20:57.007Z,98.84
2022-12-07T07:21:28.600Z,98.40
2022-12-07T07:22:00.183Z,98.26
2022-12-07T07:22:31.841Z,98.31
2022-12-07T07:23:03.726Z,98.20
2022-12-07T07:23:35.304Z,98.27
2022-12-07T07:24:07.273Z,98.64
2022-12-07T07:24:38.903Z,98.70
2022-12-07T07:25:10.641Z,98.36
2022-12-07T07:25:42.248Z,98.14
2022-12-07T07:26:16.341Z,98.28
2022-12-07T07:26:50.279Z,98.50
2022-12-07T07:27:21.887Z,98.28
2022-12-07T07:27:53.444Z,98.10
2022-12-07T07:28:25.013Z,98.06
2022-12-07T07:28:56.705Z,98.40
2022-12-07T07:29:28.251Z,98.75
2022-12-07T07:30:00.094Z,98.83
2022-12-07T07:30:32.160Z,98.95
2022-12-07T07:31:03.901Z,98.87
2022-12-07T07:31:36.658Z,98.64
2022-12-07T07:32:08.715Z,98.54
2022-12-07T07:32:40.298Z,98.84
2022-12-07T07:33:12.694Z,98.76
2022-12-07T07:33:44.359Z,98.44
2022-12-07T07:34:15.959Z,98.40
2022-12-07T07:34:47.522Z,98.29
2022-12-07T07:35:19.081Z,98.01
2022-12-07T07:35:50.683Z,98.00
2022-12-07T07:36:22.248Z,97.90
2022-12-07T07:36:53.857Z,98.19
2022-12-07T07:37:25.923Z,98.50
2022-12-07T07:37:57.979Z,98.56
2022-12-07T07:38:29.579Z,98.84
2022-12-07T07:39:01.267Z,98.58
2022-12-07T07:39:32.920Z,98.57
2022-12-07T07:40:05.371Z,98.20
2022-12-07T07:40:37.781Z,98.21
2022-12-07T07:41:09.421Z,98.62
2022-12-07T07:41:40.979Z,98.71
2022-12-07T07:42:12.626Z,98.67
2022-12-07T07:42:44.233Z,98.51
2022-12-07T07:43:15.902Z,98.50
2022-12-07T07:43:47.560Z,98.38
2022-12-07T07:44:19.152Z,98.23
2022-12-07T07:44:50.739Z,97.84
2022-12-07T07:45:24.967Z,97.65
2022-12-07T07:45:56.549Z,97.68
2022-12-07T07:46:28.282Z,97.71
2022-12-07T07:46:59.935Z,97.83
2022-12-07T07:47:31.527Z,97.92
2022-12-07T07:48:03.162Z,97.92
2022-12-07T07:48:35.007Z,98.12
2022-12-07T07:49:06.571Z,97.69
2022-12-07T07:49:41.853Z,97.50
2022-12-07T07:50:17.088Z,97.23
2022-12-07T07:50:48.641Z,97.58
2022-12-07T07:51:20.242Z,97.59
2022-12-07T07:51:51.832Z,97.23
2022-12-07T07:52:23.454Z,97.15
2022-12-07T07:52:55.049Z,97.21
2022-12-07T07:53:26.651Z,97.20
2022-12-07T07:53:58.235Z,97.29
2022-12-07T07:54:29.868Z,97.06
2022-12-07T07:55:01.505Z,96.96
2022-12-07T07:55:33.071Z,97.46
2022-12-07T07:56:05.083Z,97.45
2022-12-07T07:56:36.698Z,97.42
2022-12-07T07:57:08.295Z,97.38
2022-12-07T07:57:41.425Z,97.09
2022-12-07T07:58:13.014Z,96.72
2022-12-07T07:58:44.609Z,96.38
2022-12-07T07:59:16.862Z,96.50
2022-12-07T07:59:48.483Z,96.29
2022-12-07T08:00:20.335Z,96.48
2022-12-07T08:00:52.338Z,96.78
2022-12-07T08:01:24.200Z,96.70
2022-12-07T08:01:55.994Z,96.75
2022-12-07T08:02:30.567Z,96.39
2022-12-07T08:03:02.167Z,97.18
2022-12-07T08:03:33.976Z,97.46
2022-12-07T08:04:05.571Z,97.68
2022-12-07T08:04:37.180Z,97.31
2022-12-07T08:05:09.090Z,97.02
2022-12-07T08:05:40.792Z,96.61
2022-12-07T08:06:12.421Z,96.59
2022-12-07T08:06:44.165Z,96.51
2022-12-07T08:07:16.735Z,96.17
2022-12-07T08:07:48.450Z,95.99
2022-12-07T08:08:20.157Z,96.00
2022-12-07T08:08:51.854Z,95.90
2022-12-07T08:09:23.763Z,95.62
2022-12-07T08:09:55.381Z,95.43
2022-12-07T08:10:27.113Z,96.06
2022-12-07T08:11:01.729Z,95.60
2022-12-07T08:11:33.380Z,95.29
2022-12-07T08:12:05.542Z,95.47
2022-12-07T08:13:00.930Z,95.30
2022-12-07T08:13:32.657Z,95.41
2022-12-07T08:14:04.787Z,95.37
2022-12-07T08:14:36.522Z,95.43
2022-12-07T08:15:08.465Z,96.06
2022-12-07T08:15:42.604Z,96.35
2022-12-07T08:16:16.278Z,95.74
2022-12-07T08:16:48.048Z,95.54
2022-12-07T08:17:19.625Z,96.07
2022-12-07T08:17:51.176Z,96.17
2022-12-07T08:18:22.768Z,96.44
2022-12-07T08:18:54.441Z,96.65
2022-12-07T08:19:26.249Z,96.63
2022-12-07T08:19:57.874Z,96.23
2022-12-07T08:20:31.967Z,96.78
2022-12-07T08:21:04.900Z,96.38
2022-12-07T08:21:36.504Z,96.09
2022-12-07T08:22:08.163Z,96.29
2022-12-07T08:22:39.719Z,95.54
2022-12-07T08:23:11.677Z,95.38
2022-12-07T08:23:43.824Z,95.84
2022-12-07T08:24:16.030Z,95.43
2022-12-07T08:24:47.665Z,95.57
2022-12-07T08:25:19.544Z,95.73
2022-12-07T08:25:51.173Z,95.75
2022-12-07T08:26:22.793Z,95.65
2022-12-07T08:26:54.506Z,95.78
2022-12-07T08:27:28.007Z,95.59
2022-12-07T08:28:01.464Z,95.61
2022-12-07T08:28:33.605Z,95.65
2022-12-07T08:29:05.237Z,95.58
2022-12-07T08:29:37.147Z,95.38
2022-12-07T08:30:09.067Z,95.59
2022-12-07T08:30:40.746Z,95.52
2022-12-07T08:31:15.580Z,95.02
2022-12-07T08:31:47.463Z,94.80
2022-12-07T08:32:19.095Z,94.95
2022-12-07T08:32:50.975Z,94.81
2022-12-07T08:33:24.053Z,94.37
2022-12-07T08:33:56.332Z,94.42
2022-12-07T08:34:28.083Z,94.23
2022-12-07T08:34:59.647Z,94.41
2022-12-07T08:35:33.434Z,94.80
2022-12-07T08:36:12.882Z,94.29
2022-12-07T08:36:44.445Z,94.53
2022-12-07T08:37:16.051Z,94.92
2022-12-07T08:37:47.636Z,94.51
2022-12-07T08:38:19.323Z,94.69
2022-12-07T08:39:29.357Z,94.01
2022-12-07T08:39:43.031Z,94.03
2022-12-07T08:40:19.878Z,94.33
2022-12-07T08:40:58.246Z,94.37
2022-12-07T08:41:30.150Z,94.14
2022-12-07T08:42:01.755Z,94.25
2022-12-07T08:42:38.903Z,94.42
2022-12-07T08:43:10.533Z,93.96
2022-12-07T08:43:42.222Z,94.17
2022-12-07T08:44:13.826Z,94.16
2022-12-07T08:44:46.747Z,94.26
2022-12-07T08:45:24.941Z,94.27
2022-12-07T08:46:16.421Z,94.54
2022-12-07T08:46:53.630Z,93.86
2022-12-07T08:47:26.380Z,93.07
2022-12-07T08:48:02.896Z,93.25
2022-12-07T08:48:37.250Z,93.05
2022-12-07T08:49:22.727Z,92.72
2022-12-07T08:49:55.609Z,92.68
2022-12-07T08:50:27.759Z,92.31
2022-12-07T08:50:59.601Z,92.55
2022-12-07T08:51:31.457Z,92.52
2022-12-07T08:52:06.351Z,92.65
2022-12-07T08:52:38.514Z,92.54
2022-12-07T08:53:10.172Z,93.15
2022-12-07T08:53:44.810Z,93.20
2022-12-07T08:54:18.554Z,92.96
2022-12-07T08:54:50.348Z,93.16
2022-12-07T08:55:22.578Z,93.35
2022-12-07T08:55:54.393Z,92.89
2022-12-07T08:56:26.232Z,92.99
2022-12-07T08:56:59.663Z,92.94
2022-12-07T08:57:34.791Z,92.34
2022-12-07T08:58:06.773Z,92.62
2022-12-07T08:58:39.775Z,92.56
2022-12-07T08:59:13.723Z,92.49
2022-12-07T08:59:45.542Z,92.61
2022-12-07T09:00:20.471Z,92.53
2022-12-07T09:00:52.104Z,92.80
2022-12-07T09:01:23.950Z,94.12
2022-12-07T09:01:55.711Z,93.98
2022-12-07T09:02:27.492Z,93.84
2022-12-07T09:02:59.631Z,93.77
2022-12-07T09:03:31.688Z,93.96
2022-12-07T09:04:03.312Z,93.64
2022-12-07T09:04:34.888Z,94.09
2022-12-07T09:05:09.536Z,93.95
2022-12-07T09:05:45.068Z,93.82
2022-12-07T09:06:16.757Z,94.01
2022-12-07T09:06:49.301Z,94.36
2022-12-07T09:07:21.034Z,94.67
2022-12-07T09:07:57.394Z,94.74
2022-12-07T09:08:37.062Z,94.90
2022-12-07T09:09:10.500Z,94.74
2022-12-07T09:09:42.855Z,94.69
2022-12-07T09:10:14.523Z,94.50
2022-12-07T09:10:46.478Z,94.43
2022-12-07T09:11:18.051Z,94.23
2022-12-07T09:12:45.112Z,94.82
2022-12-07T09:13:16.697Z,94.87
2022-12-07T09:13:48.370Z,94.80
2022-12-07T09:14:19.972Z,94.73
2022-12-07T09:14:51.615Z,95.29
2022-12-07T09:15:23.223Z,94.93
2022-12-07T09:15:54.824Z,94.74
2022-12-07T09:16:26.494Z,94.65
2022-12-07T09:17:09.607Z,94.45
2022-12-07T09:17:41.254Z,93.87
2022-12-07T09:18:12.897Z,94.43
2022-12-07T09:18:44.507Z,94.11
2022-12-07T09:19:16.088Z,94.23
2022-12-07T09:19:47.709Z,93.36
2022-12-07T09:20:22.137Z,92.83
2022-12-07T09:20:58.022Z,92.98
2022-12-07T09:21:29.675Z,92.91
2022-12-07T09:22:01.325Z,92.09
2022-12-07T09:22:34.446Z,92.31
2022-12-07T09:23:09.345Z,92.22
2022-12-07T09:23:43.702Z,91.60
2022-12-07T09:24:15.448Z,91.23
2022-12-07T09:24:47.106Z,91.95
2022-12-07T09:25:18.671Z,90.97
2022-12-07T09:25:50.395Z,90.28
2022-12-07T09:26:22.047Z,90.36
2022-12-07T09:26:53.618Z,90.77
2022-12-07T09:27:25.836Z,90.68
2022-12-07T09:27:59.870Z,90.40
2022-12-07T09:28:32.418Z,90.95
2022-12-07T09:29:04.205Z,90.13
2022-12-07T09:29:35.955Z,89.87
2022-12-07T09:30:08.202Z,90.02
2022-12-07T09:30:59.886Z,89.99
2022-12-07T09:31:31.675Z,89.80
2022-12-07T09:32:08.242Z,89.53
2022-12-07T09:32:42.938Z,89.86
2022-12-07T09:33:15.153Z,90.59
2022-12-07T09:33:46.948Z,90.85
2022-12-07T09:34:18.932Z,90.54
2022-12-07T09:34:50.861Z,90.44
2022-12-07T09:35:23.343Z,90.25
2022-12-07T09:35:55.299Z,90.02
2022-12-07T09:36:28.006Z,90.63
2022-12-07T09:37:03.998Z,90.36
2022-12-07T09:37:37.204Z,90.28
2022-12-07T09:38:08.802Z,90.80
2022-12-07T09:38:40.421Z,91.31
2022-12-07T09:39:12.051Z,91.63
2022-12-07T09:39:49.731Z,91.23
2022-12-07T09:40:24.406Z,90.86
2022-12-07T09:40:56.586Z,91.03
2022-12-07T09:41:30.299Z,91.62
2022-12-07T09:42:04.993Z,91.12
2022-12-07T09:42:46.955Z,91.09
2022-12-07T09:43:22.434Z,91.52
2022-12-07T09:44:03.356Z,91.60
2022-12-07T09:44:36.768Z,91.77
2022-12-07T09:45:15.277Z,91.48
2022-12-07T09:45:51.217Z,91.01
2022-12-07T09:46:23.261Z,91.14
2022-12-07T09:46:55.946Z,91.32
2022-12-07T09:47:28.630Z,90.80
2022-12-07T09:48:00.905Z,90.65
2022-12-07T09:48:40.100Z,90.48
2022-12-07T09:49:21.486Z,90.52
2022-12-07T09:49:56.468Z,90.00
2022-12-07T09:50:29.628Z,89.58
2022-12-07T09:51:02.431Z,89.84
2022-12-07T09:51:34.104Z,90.55
2022-12-07T09:52:08.823Z,90.99
2022-12-07T09:52:41.856Z,91.28
2022-12-07T09:53:35.457Z,91.73
2022-12-07T09:54:07.406Z,91.86
2022-12-07T09:54:44.764Z,91.50
2022-12-07T09:55:24.559Z,91.36
2022-12-07T09:55:56.651Z,91.77
2022-12-07T09:56:31.796Z,91.41
2022-12-07T09:57:04.244Z,90.94
2022-12-07T09:57:38.167Z,91.40
2022-12-07T09:58:27.458Z,91.08
2022-12-07T09:59:03.613Z,90.96
2022-12-07T09:59:36.822Z,90.46
2022-12-07T10:00:14.646Z,90.37
2022-12-07T10:00:46.537Z,89.49
2022-12-07T10:01:22.405Z,89.41
2022-12-07T10:01:54.297Z,89.69
2022-12-07T10:02:48.236Z,90.75
2022-12-07T10:03:19.957Z,90.42
2022-12-07T10:03:54.340Z,90.26
2022-12-07T10:04:26.960Z,89.75
2022-12-07T10:05:00.853Z,89.43
2022-12-07T10:05:35.583Z,89.26
2022-12-07T10:06:08.256Z,89.31
2022-12-07T10:06:40.043Z,89.35
2022-12-07T10:07:11.623Z,89.71
2022-12-07T10:07:43.470Z,90.17
2022-12-07T10:08:17.045Z,90.00
2022-12-07T10:08:50.100Z,90.20
2022-12-07T10:09:22.744Z,89.31
2022-12-07T10:09:54.443Z,89.18
2022-12-07T10:10:32.850Z,89.38
2022-12-07T10:11:11.650Z,89.30
2022-12-07T10:12:10.408Z,89.38
2022-12-07T10:13:09.288Z,90.49
2022-12-07T10:13:47.910Z,90.06
2022-12-07T10:14:19.523Z,90.28
2022-12-07T10:15:07.332Z,89.86
2022-12-07T10:16:07.143Z,89.70
2022-12-07T10:16:42.617Z,89.67
2022-12-07T10:17:49.580Z,89.05
2022-12-07T10:18:42.653Z,89.23
2022-12-07T10:19:29.963Z,89.52
2022-12-07T10:20:15.327Z,88.74
2022-12-07T10:20:48.500Z,88.42
2022-12-07T10:21:24.775Z,88.58
2022-12-07T10:22:14.327Z,86.84
2022-12-07T10:22:56.177Z,86.51
2022-12-07T10:23:27.794Z,85.87
2022-12-07T10:24:11.294Z,85.75
2022-12-07T10:24:45.059Z,84.92
2022-12-07T10:25:22.121Z,85.23
2022-12-07T10:25:56.004Z,85.74
2022-12-07T10:26:51.134Z,85.30
2022-12-07T10:27:33.405Z,85.42
2022-12-07T10:28:17.989Z,86.49
2022-12-07T10:28:49.747Z,85.95
2022-12-07T10:29:34.421Z,84.84
2022-12-07T10:30:34.548Z,84.94
2022-12-07T10:31:20.061Z,85.86
2022-12-07T10:31:58.758Z,86.12
2022-12-07T10:32:37.985Z,86.46
2022-12-07T10:33:32.929Z,86.47
2022-12-07T10:34:04.550Z,86.75
2022-12-07T10:34:42.618Z,86.59
2022-12-07T10:35:24.475Z,86.85
2022-12-07T10:35:56.366Z,86.77
2022-12-07T10:36:33.651Z,86.61
2022-12-07T10:37:14.182Z,86.52
2022-12-07T10:37:46.725Z,87.16
2022-12-07T10:38:18.334Z,87.03
2022-12-07T10:38:53.775Z,87.22
2022-12-07T10:39:25.338Z,87.18
2022-12-07T10:39:58.258Z,86.88
2022-12-07T10:40:36.513Z,86.93
2022-12-07T10:41:09.101Z,86.57
2022-12-07T10:42:04.030Z,86.43
2022-12-07T10:42:35.611Z,86.15
2022-12-07T10:43:27.466Z,86.61
2022-12-07T10:43:59.275Z,87.55
2022-12-07T10:44:33.265Z,86.92
2022-12-07T10:45:25.955Z,86.67
2022-12-07T10:46:14.601Z,87.30
2022-12-07T10:47:06.184Z,86.95
2022-12-07T10:47:48.498Z,86.32
2022-12-07T10:48:38.772Z,87.38
2022-12-07T10:49:37.458Z,87.86
2022-12-07T10:50:38.247Z,88.10
2022-12-07T10:51:39.584Z,87.44
2022-12-07T10:52:32.843Z,87.27
2022-12-07T10:53:04.435Z,87.10
2022-12-07T10:54:02.148Z,85.85
2022-12-07T10:54:55.450Z,85.05
2022-12-07T10:55:49.999Z,85.11
2022-12-07T10:56:36.323Z,84.86
2022-12-07T10:57:29.439Z,84.51
2022-12-07T10:58:07.424Z,83.34
2022-12-07T10:59:01.552Z,83.94
2022-12-07T10:59:43.062Z,83.01
2022-12-07T11:00:20.982Z,82.80
2022-12-07T11:01:18.169Z,83.37
2022-12-07T11:01:58.631Z,83.54
2022-12-07T11:03:00.761Z,82.51
2022-12-07T11:03:47.435Z,82.70
2022-12-07T11:05:07.244Z,83.91
2022-12-07T11:05:44.568Z,83.01
2022-12-07T11:06:25.296Z,83.04
2022-12-07T11:07:23.173Z,81.91
2022-12-07T11:08:17.907Z,81.79
2022-12-07T11:08:52.574Z,80.67
2022-12-07T11:10:10.293Z,78.68
2022-12-07T11:11:28.942Z,80.34
2022-12-07T11:12:09.615Z,80.00
2022-12-07T11:13:02.825Z,80.24
2022-12-07T11:13:53.043Z,78.99
2022-12-07T11:14:52.630Z,78.61
2022-12-07T11:15:30.332Z,76.89
2022-12-07T11:16:01.921Z,77.37
2022-12-07T11:16:36.347Z,77.26
2022-12-07T11:17:37.391Z,78.56
2022-12-07T11:18:25.330Z,79.05
2022-12-07T11:18:59.767Z,79.20
2022-12-07T11:19:52.405Z,80.36
2022-12-07T11:20:35.999Z,79.77
2022-12-07T11:21:16.160Z,79.87
2022-12-07T11:21:58.833Z,78.89
2022-12-07T11:22:55.033Z,79.72
2022-12-07T11:23:48.652Z,80.21
2022-12-07T11:24:41.896Z,79.46
2022-12-07T11:25:31.461Z,80.11
2022-12-07T11:26:18.484Z,79.63
2022-12-07T11:26:58.853Z,80.22
2022-12-07T11:27:43.297Z,80.35
2022-12-07T11:28:29.942Z,80.43
2022-12-07T11:29:28.568Z,80.96
2022-12-07T11:30:13.576Z,80.82
2022-12-07T11:31:24.530Z,81.39
2022-12-07T11:32:35.779Z,81.75
2022-12-07T11:33:23.163Z,82.08
2022-12-07T11:34:05.680Z,82.67
2022-12-07T11:35:08.097Z,81.87
2022-12-07T11:36:11.896Z,81.85
2022-12-07T11:36:50.715Z,81.95
2022-12-07T11:37:29.167Z,81.35
2022-12-07T11:38:09.488Z,80.72
2022-12-07T11:38:52.924Z,80.74
2022-12-07T11:39:31.683Z,80.66
2022-12-07T11:40:06.480Z,81.72
2022-12-07T11:40:40.948Z,81.46
2022-12-07T11:41:14.197Z,81.61
2022-12-07T11:41:49.315Z,81.66
2022-12-07T11:42:26.243Z,82.62
2022-12-07T11:43:05.471Z,82.43
2022-12-07T11:43:37.101Z,82.60
2022-12-07T11:44:32.419Z,82.40
2022-12-07T11:45:20.719Z,82.53
2022-12-07T11:46:03.697Z,82.97
2022-12-07T11:46:50.478Z,81.99
2022-12-07T11:47:46.349Z,81.15
2022-12-07T11:48:34.542Z,82.30
2022-12-07T11:49:40.615Z,81.24
2022-12-07T11:51:05.644Z,80.96
2022-12-07T11:51:40.071Z,81.50
2022-12-07T11:52:27.372Z,82.11
2022-12-07T11:53:36.244Z,82.37
2022-12-07T11:54:18.991Z,82.24
2022-12-07T11:54:54.043Z,82.69
2022-12-07T11:55:41.353Z,82.59
2022-12-07T11:56:14.363Z,82.70
2022-12-07T11:56:51.527Z,82.40
2022-12-07T11:57:42.971Z,82.98
2022-12-07T11:58:49.810Z,82.87
2022-12-07T11:59:33.971Z,82.68
2022-12-07T12:00:13.241Z,82.07
2022-12-07T12:00:45.244Z,81.29
2022-12-07T12:01:42.838Z,81.90
2022-12-07T12:02:25.234Z,81.52
2022-12-07T12:03:04.546Z,80.74
2022-12-07T12:03:41.649Z,80.83
2022-12-07T12:04:13.264Z,81.09
2022-12-07T12:05:16.257Z,81.21
2022-12-07T12:05:48.127Z,81.33
2022-12-07T12:06:20.660Z,81.99
2022-12-07T12:06:52.859Z,82.68
2022-12-07T12:10:25.531Z,82.93
2022-12-07T12:11:15.292Z,82.75
2022-12-07T12:14:43.337Z,82.13
2022-12-07T12:15:27.124Z,81.60
2022-12-07T12:16:19.803Z,83.13
2022-12-07T12:17:04.156Z,83.12
2022-12-07T12:17:38.825Z,82.61
2022-12-07T12:18:33.755Z,82.72
2022-12-07T12:19:25.564Z,83.00
2022-12-07T12:20:24.842Z,82.60
2022-12-07T12:20:58.617Z,82.76
2022-12-07T12:21:33.338Z,82.06
2022-12-07T12:22:29.509Z,82.19
2022-12-07T12:23:08.091Z,82.19
2022-12-07T12:23:44.516Z,82.36
2022-12-07T12:24:24.068Z,82.65
2022-12-07T12:24:57.283Z,83.09
2022-12-07T12:25:32.949Z,82.30
2022-12-07T12:26:08.113Z,83.05
2022-12-07T12:26:40.299Z,82.54
2022-12-07T12:27:24.499Z,82.24
2022-12-07T12:27:59.471Z,82.58
2022-12-07T12:28:45.294Z,82.15
2022-12-07T12:29:34.583Z,81.66
2022-12-07T12:30:24.255Z,81.41
2022-12-07T12:31:10.578Z,80.56
2022-12-07T12:31:43.157Z,80.42
2022-12-07T12:32:25.275Z,79.63
2022-12-07T12:33:05.388Z,81.01
2022-12-07T12:33:39.311Z,80.53
2022-12-07T12:34:35.550Z,79.65
2022-12-07T12:35:31.587Z,78.98
2022-12-07T12:36:26.657Z,81.10
2022-12-07T12:36:58.567Z,79.61
2022-12-07T12:37:35.937Z,80.45
2022-12-07T12:38:25.685Z,80.88
2022-12-07T12:39:00.372Z,80.99
2022-12-07T12:39:32.079Z,80.11
2022-12-07T12:40:15.829Z,80.48
2022-12-07T12:40:51.044Z,80.83
2022-12-07T12:41:47.001Z,80.71
2022-12-07T12:42:21.492Z,80.76
2022-12-07T12:42:57.865Z,81.10
2022-12-07T12:43:53.388Z,80.83
2022-12-07T12:44:33.112Z,79.91
2022-12-07T12:45:18.893Z,79.64
2022-12-07T12:45:50.560Z,79.78
2022-12-07T12:46:31.582Z,80.05
2022-12-07T12:47:04.448Z,79.42
2022-12-07T12:47:52.611Z,78.87
2022-12-07T12:48:30.441Z,78.78
2022-12-07T12:49:17.110Z,80.60
2022-12-07T12:50:16.866Z,80.92
2022-12-07T12:50:48.483Z,80.71
2022-12-07T12:51:40.725Z,82.17
2022-12-07T12:52:15.314Z,82.30
2022-12-07T12:52:53.407Z,81.55
2022-12-07T12:53:27.787Z,81.13
2022-12-07T12:54:11.810Z,80.84
2022-12-07T12:55:12.659Z,81.34
2022-12-07T12:55:44.218Z,81.73
2022-12-07T12:56:48.074Z,81.37
2022-12-07T12:57:31.578Z,82.55
2022-12-07T12:58:21.304Z,81.48
2022-12-07T12:59:32.109Z,81.47
2022-12-07T13:00:25.941Z,80.46
2022-12-07T13:01:28.505Z,81.35
2022-12-07T13:02:02.855Z,81.05
2022-12-07T13:02:53.290Z,80.80
2022-12-07T13:03:31.065Z,80.33
2022-12-07T13:04:15.454Z,80.71
2022-12-07T13:04:54.725Z,80.86
2022-12-07T13:05:28.960Z,81.60
2022-12-07T13:06:25.894Z,82.01
2022-12-07T13:06:57.514Z,81.34
2022-12-07T13:07:47.085Z,81.22
2022-12-07T13:08:29.398Z,82.83
2022-12-07T13:09:06.171Z,82.57
2022-12-07T13:09:42.992Z,83.14
2022-12-07T13:10:29.694Z,82.37
2022-12-07T13:11:38.880Z,82.45
2022-12-07T13:12:16.688Z,83.05
2022-12-07T13:13:03.346Z,83.15
2022-12-07T13:13:36.559Z,82.53
2022-12-07T13:14:42.261Z,82.54
2022-12-07T13:15:51.829Z,83.86
2022-12-07T13:16:23.453Z,82.54
2022-12-07T13:16:55.172Z,82.47
2022-12-07T13:17:33.163Z,82.18
2022-12-07T13:18:29.592Z,81.82
2022-12-07T13:19:01.275Z,82.15
2022-12-07T13:19:41.935Z,82.22
2022-12-07T13:20:47.200Z,81.23
2022-12-07T13:21:19.023Z,80.54
2022-12-07T13:21:52.074Z,80.97
2022-12-07T13:22:33.136Z,81.13
2022-12-07T13:23:07.253Z,81.54
2022-12-07T13:23:45.341Z,81.68
2022-12-07T13:24:17.658Z,82.17
2022-12-07T13:24:49.360Z,82.77
2022-12-07T13:25:34.915Z,82.37
2022-12-07T13:26:18.033Z,82.64
2022-12-07T13:26:56.671Z,82.06
2022-12-07T13:27:28.610Z,80.82
2022-12-07T13:28:11.994Z,81.59
2022-12-07T13:29:08.740Z,81.48
2022-12-07T13:29:40.305Z,81.76
2022-12-07T13:30:17.865Z,81.92
2022-12-07T13:31:32.940Z,82.04
2022-12-07T13:32:04.825Z,81.41
2022-12-07T13:32:36.815Z,81.88
2022-12-07T13:33:10.771Z,82.08
2022-12-07T13:33:49.087Z,81.80
2022-12-07T13:34:39.138Z,81.92
2022-12-07T13:35:31.317Z,82.00
2022-12-07T13:36:03.932Z,80.88
2022-12-07T13:36:40.660Z,80.70
2022-12-07T13:37:12.788Z,82.14
2022-12-07T13:37:45.788Z,82.28
2022-12-07T13:38:33.199Z,81.29
2022-12-07T13:39:23.806Z,81.55
2022-12-07T13:39:56.234Z,81.19
2022-12-07T13:40:28.392Z,80.84
2022-12-07T13:41:06.120Z,82.14
2022-12-07T13:41:37.902Z,80.96
2022-12-07T13:42:23.898Z,81.22
2022-12-07T13:43:01.002Z,81.47
2022-12-07T13:43:43.590Z,81.87
2022-12-07T13:44:17.546Z,82.13
2022-12-07T13:44:50.241Z,81.23
2022-12-07T13:45:47.382Z,81.77
2022-12-07T13:46:27.777Z,80.80
2022-12-07T13:47:23.921Z,81.07
2022-12-07T13:48:00.676Z,80.83
2022-12-07T13:48:36.090Z,80.49
2022-12-07T13:49:18.785Z,80.52
2022-12-07T13:49:56.454Z,80.69
2022-12-07T13:50:31.071Z,79.94
2022-12-07T13:51:04.688Z,80.68
2022-12-07T13:51:38.008Z,81.91
2022-12-07T13:52:16.103Z,81.52
2022-12-07T13:52:49.814Z,81.50
2022-12-07T13:53:22.182Z,81.93
2022-12-07T13:54:02.391Z,81.11
2022-12-07T13:54:34.127Z,81.56
2022-12-07T13:55:05.863Z,81.86
2022-12-07T13:55:49.482Z,81.88
2022-12-07T13:56:32.787Z,82.19
2022-12-07T13:57:04.763Z,81.63
2022-12-07T13:57:37.659Z,81.85
2022-12-07T13:58:10.328Z,81.93
2022-12-07T13:58:42.253Z,82.69
2022-12-07T13:59:25.881Z,82.29
2022-12-07T13:59:59.679Z,82.27
2022-12-07T14:00:31.497Z,81.54
2022-12-07T14:01:03.531Z,82.43
2022-12-07T14:01:35.466Z,82.18
2022-12-07T14:02:56.025Z,83.07
2022-12-07T14:03:34.545Z,82.32
2022-12-07T14:04:20.652Z,82.04
2022-12-07T14:04:53.121Z,82.25
2022-12-07T14:05:30.616Z,82.33
2022-12-07T14:06:08.830Z,81.89
2022-12-07T14:06:50.078Z,83.03
2022-12-07T14:07:30.073Z,82.97
2022-12-07T14:08:05.999Z,83.37
2022-12-07T14:08:37.929Z,83.96
2022-12-07T14:09:25.287Z,83.48
2022-12-07T14:10:03.836Z,84.29
2022-12-07T14:10:39.978Z,84.04
2022-12-07T14:11:19.338Z,83.91
2022-12-07T14:11:53.973Z,83.88
2022-12-07T14:12:27.255Z,83.93
2022-12-07T14:13:00.207Z,84.03
2022-12-07T14:13:42.606Z,84.84
2022-12-07T14:14:21.211Z,84.49
2022-12-07T14:14:53.968Z,85.27
2022-12-07T14:15:29.905Z,85.48
2022-12-07T14:16:04.166Z,85.68
2022-12-07T14:16:38.214Z,84.48
2022-12-07T14:17:17.705Z,84.51
2022-12-07T14:17:53.986Z,84.85
2022-12-07T14:18:32.317Z,84.53
2022-12-07T14:19:07.157Z,84.94
2022-12-07T14:19:53.439Z,84.56
2022-12-07T14:20:38.601Z,85.39
2022-12-07T14:21:10.479Z,85.01
2022-12-07T14:21:42.135Z,84.70
2022-12-07T14:22:30.851Z,83.91
2022-12-07T14:23:10.253Z,84.70
2022-12-07T14:23:42.847Z,84.70
2022-12-07T14:24:21.359Z,84.41
2022-12-07T14:25:19.867Z,84.46
2022-12-07T14:25:53.824Z,84.06
2022-12-07T14:26:26.287Z,83.81
2022-12-07T14:26:57.846Z,84.87
2022-12-07T14:27:35.136Z,84.53
2022-12-07T14:28:50.770Z,84.66
2022-12-07T14:29:31.308Z,84.52
2022-12-07T14:30:05.209Z,84.31
2022-12-07T14:30:36.901Z,84.69
2022-12-07T14:31:19.070Z,84.35
2022-12-07T14:31:56.622Z,83.99
2022-12-07T14:32:30.344Z,84.24